Time,TemperatureF,DewpointF,PressureIn,WindDirection,WindDirectionDegrees,WindSpeedMPH,WindSpeedGustMPH,Humidity,HourlyPrecipIn,Conditions,Clouds,dailyrainin,SolarRadiationWatts/m^2,SoftwareType,DateUTC
2013-02-01 00:08:00,15.2,12.0,29.96,WNW,299,1.0,8.0,88,0.00,,,0.00,0,weatherlink.com 1.10,2013-02-01 05:08:00,
2013-02-01 00:23:00,15.2,12.0,29.97,West,261,0.0,6.0,88,0.00,,,0.00,0,weatherlink.com 1.10,2013-02-01 05:23:00,
2013-02-01 00:38:00,15.1,12.0,29.98,West,271,3.0,6.0,88,0.00,,,0.00,0,weatherlink.com 1.10,2013-02-01 05:38:00,
2013-02-01 00:53:00,15.1,12.0,29.99,WNW,285,7.0,10.0,88,0.00,,,0.00,0,weatherlink.com 1.10,2013-02-01 05:53:00,
2013-02-01 01:08:00,15.2,12.0,29.99,WNW,294,2.0,6.0,88,0.00,,,0.00,0,weatherlink.com 1.10,2013-02-01 06:08:00,
2013-02-01 01:24:00,15.2,12.0,30.00,West,270,2.0,6.0,88,0.00,,,0.00,0,weatherlink.com 1.10,2013-02-01 06:24:00,
2013-02-01 01:38:00,15.2,12.0,30.00,WNW,286,1.0,9.0,88,0.00,,,0.00,0,weatherlink.com 1.10,2013-02-01 06:38:00,
2013-02-01 01:53:00,15.0,12.0,30.01,WNW,293,2.0,10.0,88,0.00,,,0.00,0,weatherlink.com 1.10,2013-02-01 06:53:00,
2013-02-01 02:08:00,14.8,12.0,30.02,WNW,301,2.0,10.0,87,0.00,,,0.00,0,weatherlink.com 1.10,2013-02-01 07:08:00,
2013-02-01 02:23:00,14.6,11.0,30.03,NNW,340,3.0,12.0,87,0.00,,,0.00,0,weatherlink.com 1.10,2013-02-01 07:23:00,
2013-02-01 02:39:00,14.6,11.0,30.04,NW,312,2.0,9.0,87,0.00,,,0.00,0,weatherlink.com 1.10,2013-02-01 07:39:00,
2013-02-01 02:54:00,14.7,12.0,30.05,NNW,339,2.0,12.0,87,0.00,,,0.00,0,weatherlink.com 1.10,2013-02-01 07:54:00,
2013-02-01 03:09:00,14.6,11.0,30.05,West,273,1.0,7.0,87,0.00,,,0.00,0,weatherlink.com 1.10,2013-02-01 08:09:00,
2013-02-01 03:24:00,14.5,11.0,30.06,West,279,1.0,9.0,87,0.00,,,0.00,0,weatherlink.com 1.10,2013-02-01 08:24:00,
2013-02-01 03:39:00,14.4,11.0,30.06,WNW,300,3.0,8.0,87,0.00,,,0.00,0,weatherlink.com 1.10,2013-02-01 08:39:00,
2013-02-01 03:54:00,14.3,11.0,30.07,NW,305,5.0,8.0,87,0.00,,,0.00,0,weatherlink.com 1.10,2013-02-01 08:54:00,
2013-02-01 04:09:00,14.2,11.0,30.08,West,280,1.0,9.0,87,0.00,,,0.00,0,weatherlink.com 1.10,2013-02-01 09:09:00,
2013-02-01 04:24:00,14.2,11.0,30.09,WSW,256,5.0,5.0,87,0.00,,,0.00,0,weatherlink.com 1.10,2013-02-01 09:24:00,
2013-02-01 04:39:00,14.2,11.0,30.09,West,280,1.0,6.0,87,0.00,,,0.00,0,weatherlink.com 1.10,2013-02-01 09:39:00,
2013-02-01 04:54:00,14.3,11.0,30.10,West,281,2.0,8.0,87,0.00,,,0.00,0,weatherlink.com 1.10,2013-02-01 09:54:00,
2013-02-01 05:09:00,14.3,11.0,30.11,WNW,299,0.0,6.0,87,0.00,,,0.00,0,weatherlink.com 1.10,2013-02-01 10:09:00,
2013-02-01 05:24:00,14.4,11.0,30.11,WNW,290,0.0,4.0,87,0.00,,,0.00,0,weatherlink.com 1.10,2013-02-01 10:24:00,
2013-02-01 05:39:00,14.4,11.0,30.12,WNW,296,0.0,4.0,87,0.00,,,0.00,0,weatherlink.com 1.10,2013-02-01 10:39:00,
2013-02-01 05:54:00,14.5,11.0,30.13,WNW,290,1.0,5.0,87,0.00,,,0.00,0,weatherlink.com 1.10,2013-02-01 10:54:00,
2013-02-01 06:09:00,14.5,11.0,30.14,West,281,1.0,8.0,87,0.00,,,0.00,0,weatherlink.com 1.10,2013-02-01 11:09:00,
2013-02-01 06:24:00,14.3,11.0,30.14,WNW,286,4.0,7.0,87,0.00,,,0.00,0,weatherlink.com 1.10,2013-02-01 11:24:00,
2013-02-01 06:39:00,14.3,11.0,30.15,West,275,2.0,8.0,87,0.00,,,0.00,0,weatherlink.com 1.10,2013-02-01 11:39:00,
2013-02-01 06:54:00,14.3,11.0,30.16,NW,304,2.0,9.0,87,0.00,,,0.00,0,weatherlink.com 1.10,2013-02-01 11:54:00,
2013-02-01 07:09:00,14.2,11.0,30.16,NW,304,2.0,7.0,87,0.00,,,0.00,0,weatherlink.com 1.10,2013-02-01 12:09:00,
2013-02-01 07:24:00,14.1,11.0,30.17,West,277,0.0,5.0,87,0.00,,,0.00,0,weatherlink.com 1.10,2013-02-01 12:24:00,
2013-02-01 07:39:00,14.1,11.0,30.18,WNW,290,2.0,8.0,87,0.01,,,0.01,0,weatherlink.com 1.10,2013-02-01 12:39:00,
2013-02-01 07:54:00,14.0,11.0,30.19,West,280,4.0,8.0,87,0.01,,,0.01,0,weatherlink.com 1.10,2013-02-01 12:54:00,
2013-02-01 08:09:00,14.0,11.0,30.19,West,272,4.0,11.0,87,0.01,,,0.01,0,weatherlink.com 1.10,2013-02-01 13:09:00,
2013-02-01 08:24:00,14.0,11.0,30.20,West,269,7.0,10.0,87,0.01,,,0.01,9,weatherlink.com 1.10,2013-02-01 13:24:00,
2013-02-01 08:39:00,14.0,11.0,30.21,WSW,257,3.0,8.0,87,0.00,,,0.01,16,weatherlink.com 1.10,2013-02-01 13:39:00,
2013-02-01 08:54:00,14.1,11.0,30.22,WNW,288,0.0,8.0,87,0.00,,,0.01,23,weatherlink.com 1.10,2013-02-01 13:54:00,
2013-02-01 09:09:00,14.3,11.0,30.22,WNW,290,1.0,7.0,87,0.00,,,0.01,32,weatherlink.com 1.10,2013-02-01 14:09:00,
2013-02-01 09:24:00,14.4,11.0,30.23,WNW,283,6.0,9.0,87,0.00,,,0.01,35,weatherlink.com 1.10,2013-02-01 14:24:00,
2013-02-01 09:39:00,14.4,11.0,30.23,NW,307,1.0,9.0,87,0.00,,,0.01,44,weatherlink.com 1.10,2013-02-01 14:39:00,
2013-02-01 09:54:00,14.6,11.0,30.23,WNW,290,0.0,7.0,87,0.00,,,0.01,56,weatherlink.com 1.10,2013-02-01 14:54:00,
2013-02-01 10:09:00,14.5,11.0,30.25,NW,313,4.0,10.0,87,0.00,,,0.01,63,weatherlink.com 1.10,2013-02-01 15:09:00,
2013-02-01 10:25:00,15.1,12.0,30.24,West,278,1.0,9.0,86,0.00,,,0.01,95,weatherlink.com 1.10,2013-02-01 15:25:00,
2013-02-01 10:40:00,15.6,12.0,30.25,West,273,8.0,10.0,84,0.00,,,0.01,109,weatherlink.com 1.10,2013-02-01 15:40:00,
2013-02-01 10:55:00,15.5,11.0,30.26,WNW,286,5.0,10.0,83,0.00,,,0.01,93,weatherlink.com 1.10,2013-02-01 15:55:00,
2013-02-01 11:10:00,15.3,11.0,30.27,West,263,2.0,9.0,83,0.00,,,0.01,107,weatherlink.com 1.10,2013-02-01 16:10:00,
2013-02-01 11:25:00,15.4,11.0,30.27,West,280,0.0,13.0,81,0.00,,,0.01,137,weatherlink.com 1.10,2013-02-01 16:25:00,
2013-02-01 11:40:00,16.2,11.0,30.28,WNW,284,6.0,10.0,80,0.00,,,0.01,134,weatherlink.com 1.10,2013-02-01 16:40:00,
2013-02-01 11:55:00,15.9,10.0,30.27,WSW,246,4.0,8.0,77,0.00,,,0.01,158,weatherlink.com 1.10,2013-02-01 16:55:00,
2013-02-01 12:10:00,15.9,10.0,30.27,WNW,294,2.0,9.0,77,0.00,,,0.01,116,weatherlink.com 1.10,2013-02-01 17:10:00,
2013-02-01 12:25:00,15.5,10.0,30.27,NNW,331,4.0,9.0,77,0.00,,,0.01,158,weatherlink.com 1.10,2013-02-01 17:25:00,
2013-02-01 12:40:00,15.4,10.0,30.27,WNW,290,6.0,10.0,78,0.00,,,0.01,130,weatherlink.com 1.10,2013-02-01 17:40:00,
2013-02-01 12:55:00,15.4,10.0,30.27,WSW,257,9.0,12.0,79,0.00,,,0.01,151,weatherlink.com 1.10,2013-02-01 17:55:00,
2013-02-01 13:10:00,15.2,10.0,30.27,WSW,245,5.0,10.0,80,0.00,,,0.01,162,weatherlink.com 1.10,2013-02-01 18:10:00,
2013-02-01 13:25:00,15.2,10.0,30.27,West,272,8.0,11.0,79,0.00,,,0.01,408,weatherlink.com 1.10,2013-02-01 18:25:00,
2013-02-01 13:40:00,16.1,10.0,30.27,West,269,5.0,15.0,75,0.00,,,0.01,306,weatherlink.com 1.10,2013-02-01 18:40:00,
2013-02-01 13:55:00,15.4,9.0,30.26,WNW,286,1.0,9.0,75,0.00,,,0.01,216,weatherlink.com 1.10,2013-02-01 18:55:00,
2013-02-01 14:10:00,15.5,10.0,30.26,West,261,10.0,12.0,77,0.00,,,0.01,218,weatherlink.com 1.10,2013-02-01 19:10:00,
2013-02-01 14:25:00,14.9,9.0,30.26,WSW,252,6.0,12.0,77,0.00,,,0.01,172,weatherlink.com 1.10,2013-02-01 19:25:00,
2013-02-01 14:40:00,14.7,9.0,30.27,WNW,292,2.0,14.0,78,0.00,,,0.01,169,weatherlink.com 1.10,2013-02-01 19:40:00,
2013-02-01 14:55:00,14.3,9.0,30.27,West,267,2.0,12.0,79,0.00,,,0.01,216,weatherlink.com 1.10,2013-02-01 19:55:00,
2013-02-01 15:25:00,14.2,9.0,30.26,West,276,5.0,14.0,81,0.00,,,0.01,171,weatherlink.com 1.10,2013-02-01 20:25:00,
2013-02-01 15:40:00,14.1,10.0,30.27,West,279,5.0,12.0,82,0.00,,,0.01,169,weatherlink.com 1.10,2013-02-01 20:40:00,
2013-02-01 15:55:00,13.9,9.0,30.27,West,267,0.0,10.0,82,0.00,,,0.01,125,weatherlink.com 1.10,2013-02-01 20:55:00,
2013-02-01 16:25:00,13.9,10.0,30.27,SW,217,5.0,16.0,83,0.00,,,0.01,128,weatherlink.com 1.10,2013-02-01 21:25:00,
2013-02-01 16:40:00,13.6,9.0,30.27,WSW,257,2.0,12.0,83,0.00,,,0.01,56,weatherlink.com 1.10,2013-02-01 21:40:00,
2013-02-01 16:56:00,13.4,9.0,30.27,SW,219,3.0,11.0,83,0.00,,,0.01,84,weatherlink.com 1.10,2013-02-01 21:56:00,
2013-02-01 17:10:00,13.3,9.0,30.26,WSW,254,0.0,8.0,84,0.00,,,0.01,40,weatherlink.com 1.10,2013-02-01 22:10:00,
2013-02-01 17:26:00,13.2,9.0,30.27,SW,236,6.0,9.0,84,0.00,,,0.01,26,weatherlink.com 1.10,2013-02-01 22:26:00,
2013-02-01 17:40:00,13.1,9.0,30.26,WSW,244,3.0,6.0,84,0.00,,,0.01,11,weatherlink.com 1.10,2013-02-01 22:40:00,
2013-02-01 17:56:00,13.0,9.0,30.26,SW,229,2.0,9.0,85,0.00,,,0.01,0,weatherlink.com 1.10,2013-02-01 22:56:00,
2013-02-01 18:10:00,12.9,9.0,30.26,SW,229,3.0,7.0,85,0.00,,,0.01,0,weatherlink.com 1.10,2013-02-01 23:10:00,
2013-02-01 18:25:00,12.8,9.0,30.26,SSW,212,2.0,9.0,85,0.00,,,0.01,0,weatherlink.com 1.10,2013-02-01 23:25:00,
2013-02-01 18:41:00,12.8,9.0,30.26,SW,219,3.0,8.0,85,0.00,,,0.01,0,weatherlink.com 1.10,2013-02-01 23:41:00,
2013-02-01 18:55:00,12.8,9.0,30.26,SW,232,0.0,6.0,86,0.00,,,0.01,0,weatherlink.com 1.10,2013-02-01 23:55:00,
2013-02-01 19:10:00,12.7,9.0,30.25,SSW,194,2.0,5.0,86,0.00,,,0.01,0,weatherlink.com 1.10,2013-02-02 00:10:00,
2013-02-01 19:26:00,12.0,9.0,30.26,SSW,195,1.0,5.0,86,0.00,,,0.01,0,weatherlink.com 1.10,2013-02-02 00:26:00,
2013-02-01 19:41:00,11.3,8.0,30.25,SSW,212,0.0,8.0,85,0.00,,,0.01,0,weatherlink.com 1.10,2013-02-02 00:41:00,
2013-02-01 19:56:00,10.9,7.0,30.25,SSE,168,0.0,5.0,85,0.00,,,0.01,0,weatherlink.com 1.10,2013-02-02 00:56:00,
2013-02-01 20:11:00,10.6,7.0,30.25,SW,214,2.0,10.0,85,0.00,,,0.01,0,weatherlink.com 1.10,2013-02-02 01:11:00,
2013-02-01 20:26:00,10.4,7.0,30.25,WSW,245,1.0,7.0,85,0.00,,,0.01,0,weatherlink.com 1.10,2013-02-02 01:26:00,
2013-02-01 20:41:00,10.3,7.0,30.25,South,175,0.0,8.0,85,0.00,,,0.01,0,weatherlink.com 1.10,2013-02-02 01:41:00,
2013-02-01 20:56:00,10.2,7.0,30.24,SW,223,1.0,7.0,85,0.00,,,0.01,0,weatherlink.com 1.10,2013-02-02 01:56:00,
2013-02-01 21:11:00,10.2,7.0,30.24,WSW,244,0.0,4.0,85,0.00,,,0.01,0,weatherlink.com 1.10,2013-02-02 02:11:00,
2013-02-01 21:26:00,10.2,7.0,30.24,SW,221,1.0,7.0,85,0.00,,,0.01,0,weatherlink.com 1.10,2013-02-02 02:26:00,
2013-02-01 21:41:00,10.3,7.0,30.24,South,190,1.0,6.0,85,0.00,,,0.01,0,weatherlink.com 1.10,2013-02-02 02:41:00,
2013-02-01 21:56:00,10.4,7.0,30.23,SW,229,3.0,6.0,85,0.00,,,0.01,0,weatherlink.com 1.10,2013-02-02 02:56:00,
2013-02-01 22:11:00,10.6,7.0,30.23,SW,226,2.0,5.0,85,0.00,,,0.01,0,weatherlink.com 1.10,2013-02-02 03:11:00,
2013-02-01 22:26:00,10.8,7.0,30.23,SW,227,1.0,4.0,85,0.00,,,0.01,0,weatherlink.com 1.10,2013-02-02 03:26:00,
2013-02-01 22:41:00,11.0,7.0,30.23,South,186,1.0,3.0,85,0.00,,,0.01,0,weatherlink.com 1.10,2013-02-02 03:41:00,
2013-02-01 22:56:00,11.2,8.0,30.22,SW,224,2.0,8.0,85,0.00,,,0.01,0,weatherlink.com 1.10,2013-02-02 03:56:00,
2013-02-01 23:11:00,11.4,8.0,30.22,SW,229,0.0,4.0,85,0.00,,,0.01,0,weatherlink.com 1.10,2013-02-02 04:11:00,
2013-02-01 23:26:00,11.6,8.0,30.21,South,182,0.0,3.0,86,0.01,,,0.02,0,weatherlink.com 1.10,2013-02-02 04:26:00,
2013-02-01 23:41:00,11.7,8.0,30.21,SW,219,0.0,3.0,86,0.01,,,0.02,0,weatherlink.com 1.10,2013-02-02 04:41:00,
2013-02-01 23:56:00,11.8,8.0,30.21,SW,234,1.0,3.0,86,0.01,,,0.02,0,weatherlink.com 1.10,2013-02-02 04:56:00,